Terminal Aerodrome Forecast (TAF)

TAF


TAF for:NVSC (Vanua Lava/Sola Airport) issued at 2220 UTC 17 Aug 2017
Text:TAF NVSC 172220Z 1800/1824 12010KT 9999 SCT025
Forecast period:0000 UTC 18 August 2017 to 0000 UTC 19 August 2017
Forecast type:FROM: standard forecast or significant change
Winds:from the ESE (120 degrees) at 12 MPH (10 knots; 5.1 m/s)
Visibility:6 or more sm (10+ km)
Ceiling:at least 12,000 feet AGL
Clouds: scattered clouds at 2500 feet AGL

TAF


TAF for:NVSG (Ambae/Longana Airport) issued at 2220 UTC 17 Aug 2017
Text:TAF NVSG 172220Z 1800/1824 11010KT 9999 SCT030
Forecast period:0000 UTC 18 August 2017 to 0000 UTC 19 August 2017
Forecast type:FROM: standard forecast or significant change
Winds:from the ESE (110 degrees) at 12 MPH (10 knots; 5.1 m/s)
Visibility:6 or more sm (10+ km)
Ceiling:at least 12,000 feet AGL
Clouds: scattered clouds at 3000 feet AGL

TAF


TAF for:NVSS (Santo/Pekoa International Airport) issued at 2220 UTC 17 Aug 2017
Text:TAF NVSS 172220Z 1800/1824 09005KT 9999 SCT030
Forecast period:0000 UTC 18 August 2017 to 0000 UTC 19 August 2017
Forecast type:FROM: standard forecast or significant change
Winds:from the E (90 degrees) at 6 MPH (5 knots; 2.6 m/s)
Visibility:6 or more sm (10+ km)
Ceiling:at least 12,000 feet AGL
Clouds: scattered clouds at 3000 feet AGL

TAF


TAF for:NVSL (Malekula/Lamap Airport) issued at 2220 UTC 17 Aug 2017
Text:TAF NVSL 172220Z 1800/1824 11010KT 9999 SCT025
Forecast period:0000 UTC 18 August 2017 to 0000 UTC 19 August 2017
Forecast type:FROM: standard forecast or significant change
Winds:from the ESE (110 degrees) at 12 MPH (10 knots; 5.1 m/s)
Visibility:6 or more sm (10+ km)
Ceiling:at least 12,000 feet AGL
Clouds: scattered clouds at 2500 feet AGL

TAF


TAF for:NVVV (Efate/Bauerfield International Airport) issued at 2220 UTC 17 Aug 2017
Text:TAF NVVV 172220Z 1800/1824 10010KT 9999 SCT025
Forecast period:0000 UTC 18 August 2017 to 0000 UTC 19 August 2017
Forecast type:FROM: standard forecast or significant change
Winds:from the E (100 degrees) at 12 MPH (10 knots; 5.1 m/s)
Visibility:6 or more sm (10+ km)
Ceiling:at least 12,000 feet AGL
Clouds: scattered clouds at 2500 feet AGL

TAF


TAF for:NVVW (Tanna/WhiteGrass International Airport) issued at 2220 UTC 17 Aug 2017
Text:TAF NVVW 172220Z 1800/1824 07006KT 9999 SCT025
Forecast period:0000 UTC 18 August 2017 to 0000 UTC 19 August 2017
Forecast type:FROM: standard forecast or significant change
Winds:from the ENE (70 degrees) at 7 MPH (6 knots; 3.1 m/s)
Visibility:6 or more sm (10+ km)
Ceiling:at least 12,000 feet AGL
Clouds: scattered clouds at 2500 feet AGL

TAF


TAF for:NVVA (Aneityum/Anelcahuat Airport) issued at 2220 UTC 17 Aug 2017
Text:TAF NVVA 172220Z 1800/1824 06006KT 9999 SCT025
Forecast period:0000 UTC 18 August 2017 to 0000 UTC 19 August 2017
Forecast type:FROM: standard forecast or significant change
Winds:from the ENE (60 degrees) at 7 MPH (6 knots; 3.1 m/s)
Visibility:6 or more sm (10+ km)
Ceiling:at least 12,000 feet AGL
Clouds: scattered clouds at 2500 feet AGL

TAF

ADDS TAF Data INFO
IDs: Format: Raw Decoded Include METARs

Data at: 2315 UTC 17 Aug 2017

TAF NVSC 172220Z 1800/1824 12010KT 9999 SCT025
 TAF NVSG 172220Z 1800/1824 11010KT 9999 SCT030
 TAF NVSS 172220Z 1800/1824 09005KT 9999 SCT030
 TAF NVSL 172220Z 1800/1824 11010KT 9999 SCT025
 TAF NVVV 172220Z 1800/1824 10010KT 9999 SCT025
 TAF NVVW 172220Z 1800/1824 07006KT 9999 SCT025
 TAF NVVA 172220Z 1800/1824 06006KT 9999 SCT025